Roma, Australia
Current Conditions -  °F | °C
As of 5:00 PM on Friday 24 Oct 2014 (Local Time) from YBCV Reporting Station
Clear Clear  
Wind Chill: 95°   Ceiling: Unl
Heat Index: 95°   Visibility: 6mi
Dew Point: 34°   Wind: 7mph
Humidity: 12%   Direction: 160°SSE
Pressure: 29.97"   Gusts: NA
Location:  26.57°S, 148.79°E
Report Text: YBCV 240700Z AUTO 16006KT 9999 // NCD 35/01 Q1015
Loading
Personal Weather Stations






























Interactive Weather Map
Tropical Storm Tracking
New forecast layout! Learn more

10-Day Weather Forecast

Advertisements
Track Severe Weather on mobile